Time;durP1;ratioP1;P1;durP2;ratioP2;P2;SDS_P1;SDS_P2;PMS_P1;PMS_P2;Temp;Humidity;BMP_temperature;BMP_pressure;BME280_temperature;BME280_humidity;BME280_pressure;Samples;Min_cycle;Max_cycle;Signal;HPM_P1;HPM_P2
2022/08/25 00:01:22;;;;;;;5.80;4.23;;;;;;;20.64;55.83;101196.75;5112999;27;20205;-85
2022/08/25 00:03:50;;;;;;;5.30;4.30;;;;;;;20.62;55.74;101191.47;5107987;27;20343;-85
2022/08/25 00:06:17;;;;;;;8.17;4.37;;;;;;;20.61;56.15;101194.34;5107169;28;20262;-85
2022/08/25 00:08:43;;;;;;;4.40;4.00;;;;;;;20.61;56.12;101197.03;5115588;27;20219;-86
2022/08/25 00:11:13;;;;;;;5.43;3.87;;;;;;;20.60;55.96;101196.19;5110078;27;20715;-85
2022/08/25 00:13:44;;;;;;;7.87;4.03;;;;;;;20.60;56.29;101198.91;5110640;27;20589;-86
2022/08/25 00:16:12;;;;;;;5.07;4.20;;;;;;;20.59;56.25;101197.22;5116595;27;20232;-85
2022/08/25 00:18:38;;;;;;;5.17;3.90;;;;;;;20.57;56.16;101192.94;5105843;27;20205;-85
2022/08/25 00:21:06;;;;;;;5.90;4.20;;;;;;;20.55;56.37;101195.81;5110631;27;20209;-85
2022/08/25 00:23:33;;;;;;;4.00;3.60;;;;;;;20.52;56.14;101190.69;5107651;27;20211;-85
2022/08/25 00:26:00;;;;;;;6.33;3.90;;;;;;;20.52;56.55;101193.38;5108460;28;20240;-85
2022/08/25 00:28:27;;;;;;;4.30;3.90;;;;;;;20.50;56.42;101189.13;5104920;27;20785;-85
2022/08/25 00:30:55;;;;;;;7.33;4.43;;;;;;;20.46;56.20;101191.25;5107143;28;20232;-85
2022/08/25 00:33:21;;;;;;;5.37;3.80;;;;;;;20.41;56.32;101190.88;5111037;28;20373;-84
2022/08/25 00:35:49;;;;;;;6.00;3.70;;;;;;;20.37;56.25;101197.56;5110165;27;20234;-86
2022/08/25 00:38:15;;;;;;;7.43;5.00;;;;;;;20.30;56.17;101197.25;5111279;27;20208;-85
2022/08/25 00:40:43;;;;;;;7.20;4.77;;;;;;;20.24;56.17;101197.03;5108156;27;20630;-85
2022/08/25 00:43:10;;;;;;;6.13;4.67;;;;;;;20.17;56.54;101194.03;5110678;27;20286;-85
2022/08/25 00:45:40;;;;;;;5.40;4.67;;;;;;;20.10;56.68;101193.75;5113724;27;20232;-85
2022/08/25 00:48:08;;;;;;;6.00;4.30;;;;;;;20.06;56.97;101194.22;5107301;28;20207;-86
2022/08/25 00:50:35;;;;;;;9.57;5.60;;;;;;;20.04;57.61;101191.66;5106668;27;20322;-87
2022/08/25 00:53:04;;;;;;;6.17;4.60;;;;;;;20.04;57.97;101190.78;5109521;27;20661;-85
2022/08/25 00:55:35;;;;;;;10.40;5.30;;;;;;;20.03;58.10;101195.34;5106383;27;20237;-86
2022/08/25 00:58:10;;;;;;;4.63;4.17;;;;;;;20.01;58.35;101183.81;5113196;27;20206;-87
2022/08/25 01:00:39;;;;;;;6.17;4.60;;;;;;;20.00;58.29;101183.97;5114313;27;20209;-86
2022/08/25 01:03:08;;;;;;;9.03;4.67;;;;;;;19.98;58.20;101196.78;5113378;27;20217;-85
2022/08/25 01:05:35;;;;;;;8.57;4.80;;;;;;;19.94;58.22;101190.78;5115702;27;20577;-85
2022/08/25 01:08:02;;;;;;;6.33;4.57;;;;;;;19.90;58.18;101194.78;5109100;28;20219;-85
2022/08/25 01:10:31;;;;;;;5.13;4.63;;;;;;;19.86;58.24;101187.97;5103691;27;20224;-84
2022/08/25 01:13:02;;;;;;;5.40;4.90;;;;;;;19.82;58.37;101186.53;5115269;27;20294;-84
2022/08/25 01:15:29;;;;;;;5.83;4.83;;;;;;;19.79;58.61;101189.53;5108956;27;20229;-85
2022/08/25 01:17:57;;;;;;;7.73;5.00;;;;;;;19.75;58.39;101186.25;5107727;27;20203;-84
2022/08/25 01:20:28;;;;;;;6.57;4.70;;;;;;;19.71;58.45;101201.03;5109207;27;20212;-85
2022/08/25 01:22:56;;;;;;;6.30;4.40;;;;;;;19.63;58.28;101187.41;5107930;28;20202;-84
2022/08/25 01:25:43;;;;;;;6.13;4.37;;;;;;;19.57;58.39;101189.81;5106259;28;20628;-84
2022/08/25 01:28:09;;;;;;;5.80;4.43;;;;;;;19.50;58.67;101191.41;5114398;27;20208;-85
2022/08/25 01:30:36;;;;;;;5.00;4.50;;;;;;;19.46;58.45;101190.78;5119008;27;20234;-85
2022/08/25 01:33:04;;;;;;;6.00;4.53;;;;;;;19.43;58.48;101196.47;5108277;28;20297;-86
2022/08/25 01:35:31;;;;;;;10.67;4.57;;;;;;;19.39;58.80;101190.47;5108400;27;20267;-85
2022/08/25 01:37:59;;;;;;;5.07;4.40;;;;;;;19.36;59.05;101187.22;5106322;27;20229;-84
2022/08/25 01:40:26;;;;;;;5.20;4.60;;;;;;;19.32;59.24;101194.75;5112762;27;20199;-85
2022/08/25 01:43:02;;;;;;;6.30;5.10;;;;;;;19.25;59.21;101185.50;5114123;27;20859;-85
2022/08/25 01:45:29;;;;;;;5.87;5.07;;;;;;;19.14;59.73;101185.63;5128482;22;20659;-68
2022/08/25 01:47:56;;;;;;;5.50;5.00;;;;;;;19.07;60.02;101190.72;5111954;27;20198;-70
2022/08/25 01:50:22;;;;;;;7.37;5.13;;;;;;;19.02;60.42;101192.13;5122628;27;20222;-70
2022/08/25 01:52:54;;;;;;;7.23;5.30;;;;;;;19.01;60.95;101190.41;5107252;27;20231;-69
2022/08/25 01:55:22;;;;;;;11.80;5.97;;;;;;;19.00;61.63;101199.50;5102100;28;20198;-69
2022/08/25 01:57:48;;;;;;;6.67;5.20;;;;;;;18.99;61.67;101187.84;5097890;27;20219;-68
2022/08/25 02:00:17;;;;;;;8.80;5.03;;;;;;;18.98;61.63;101188.88;5147040;22;20238;-74
2022/08/25 02:02:44;;;;;;;7.57;4.90;;;;;;;18.97;61.96;101189.00;5125388;27;20398;-75
2022/08/25 02:05:12;;;;;;;5.80;5.20;;;;;;;18.97;62.13;101183.59;5124476;27;20280;-74
2022/08/25 02:07:41;;;;;;;9.13;5.57;;;;;;;18.98;62.30;101183.47;5121880;27;20211;-75
2022/08/25 02:10:08;;;;;;;7.33;5.37;;;;;;;18.99;62.56;101189.69;5119823;27;20232;-74
2022/08/25 02:12:36;;;;;;;8.10;5.50;;;;;;;18.98;62.68;101191.56;5122681;27;20237;-75
2022/08/25 02:15:04;;;;;;;8.10;5.67;;;;;;;18.99;63.12;101187.00;5129508;27;20213;-75
2022/08/25 02:17:31;;;;;;;10.77;5.70;;;;;;;18.98;63.09;101185.31;5125404;27;20615;-73
2022/08/25 02:19:58;;;;;;;7.37;5.40;;;;;;;18.97;63.53;101181.75;5127455;27;20225;-75
2022/08/25 02:22:25;;;;;;;8.70;4.90;;;;;;;18.95;63.41;101181.03;5123236;27;20224;-75
2022/08/25 02:24:52;;;;;;;8.40;5.63;;;;;;;18.94;63.46;101175.78;5120955;27;20274;-73
2022/08/25 02:27:18;;;;;;;7.13;5.77;;;;;;;18.92;63.18;101185.84;5122680;27;20210;-74
2022/08/25 02:29:47;;;;;;;6.83;5.63;;;;;;;18.89;63.23;101180.72;5128305;27;20228;-76
2022/08/25 02:32:13;;;;;;;9.27;5.27;;;;;;;18.85;63.16;101190.09;5125370;27;20208;-74
2022/08/25 02:34:40;;;;;;;6.43;5.30;;;;;;;18.81;63.14;101188.69;5118289;27;20283;-74
2022/08/25 02:37:08;;;;;;;8.00;5.70;;;;;;;18.77;63.41;101185.41;5123290;27;20232;-75
2022/08/25 02:39:35;;;;;;;8.10;5.47;;;;;;;18.75;63.78;101186.50;5126734;27;20223;-75
2022/08/25 02:42:02;;;;;;;10.27;5.77;;;;;;;18.75;64.09;101183.81;5125998;27;20202;-75
2022/08/25 02:44:28;;;;;;;7.87;6.03;;;;;;;18.73;64.27;101182.09;5123372;27;20289;-75
2022/08/25 02:46:56;;;;;;;7.97;5.77;;;;;;;18.72;64.39;101179.53;5121323;27;20210;-74
2022/08/25 02:49:23;;;;;;;11.43;6.43;;;;;;;18.72;64.42;101180.41;5127989;27;20234;-75
2022/08/25 02:51:49;;;;;;;8.77;6.07;;;;;;;18.71;64.49;101176.00;5123786;27;20232;-74
2022/08/25 02:54:16;;;;;;;8.17;6.20;;;;;;;18.72;64.57;101174.16;5119024;27;20261;-75
2022/08/25 02:56:42;;;;;;;10.63;6.80;;;;;;;18.71;64.59;101181.38;5120883;27;20212;-74
2022/08/25 02:59:09;;;;;;;9.30;6.63;;;;;;;18.70;64.87;101176.97;5122870;27;20710;-75
2022/08/25 03:01:36;;;;;;;8.50;6.20;;;;;;;18.68;64.95;101178.09;5129033;27;20196;-74
2022/08/25 03:04:04;;;;;;;9.50;6.47;;;;;;;18.67;65.12;101173.69;5120928;27;20532;-74
2022/08/25 03:06:30;;;;;;;8.07;6.83;;;;;;;18.65;65.24;101178.38;5117384;27;20202;-74
2022/08/25 03:08:57;;;;;;;8.37;6.20;;;;;;;18.62;65.29;101168.72;5119630;28;20228;-74
2022/08/25 03:11:25;;;;;;;8.73;6.30;;;;;;;18.60;65.48;101165.31;5125700;27;20225;-74
2022/08/25 03:13:52;;;;;;;9.10;6.13;;;;;;;18.60;65.78;101165.31;5124877;27;20205;-74
2022/08/25 03:16:20;;;;;;;10.90;7.13;;;;;;;18.59;65.75;101158.22;5129497;27;20208;-74
2022/08/25 03:18:47;;;;;;;10.67;7.50;;;;;;;18.56;65.93;101162.97;5125504;27;20226;-74
2022/08/25 03:21:15;;;;;;;8.87;7.23;;;;;;;18.51;66.16;101170.63;5131824;27;20284;-74
2022/08/25 03:23:43;;;;;;;9.90;7.40;;;;;;;18.47;66.24;101161.09;5128497;27;20228;-75
2022/08/25 03:28:54;;;;;;;9.33;6.83;;;;;;;18.37;66.40;101161.06;5125843;27;20231;-74
2022/08/25 03:31:21;;;;;;;8.97;7.63;;;;;;;18.36;66.58;101164.75;5126021;27;20233;-76
2022/08/25 03:33:47;;;;;;;9.67;6.63;;;;;;;18.34;66.74;101154.09;5125400;27;20200;-73
2022/08/25 03:36:15;;;;;;;9.40;6.83;;;;;;;18.34;67.04;101166.72;5125692;27;20208;-75
2022/08/25 03:38:42;;;;;;;10.40;7.43;;;;;;;18.32;66.96;101166.84;5129377;27;20228;-74
2022/08/25 03:41:14;;;;;;;7.53;6.50;;;;;;;18.31;66.92;101157.03;5125981;27;20290;-75
2022/08/25 03:43:41;;;;;;;7.87;6.57;;;;;;;18.31;66.97;101166.97;5121852;27;20211;-76
2022/08/25 03:46:08;;;;;;;9.40;6.33;;;;;;;18.30;66.72;101165.25;5124904;27;20200;-75
2022/08/25 03:48:34;;;;;;;7.53;5.90;;;;;;;18.27;66.29;101165.56;5123260;27;20572;-75
2022/08/25 03:51:01;;;;;;;7.63;6.57;;;;;;;18.21;65.84;101161.56;5120440;27;20244;-75
2022/08/25 03:53:28;;;;;;;8.23;6.67;;;;;;;18.18;65.68;101164.50;5124453;27;20203;-74
2022/08/25 03:55:56;;;;;;;9.97;6.63;;;;;;;18.13;65.56;101160.50;5116009;27;20206;-75
2022/08/25 03:58:23;;;;;;;8.10;6.90;;;;;;;18.07;65.34;101161.91;5127193;27;20212;-75
2022/08/25 04:00:49;;;;;;;11.17;7.40;;;;;;;18.02;65.40;101159.59;5126989;27;20196;-74
2022/08/25 04:03:17;;;;;;;10.27;6.90;;;;;;;17.97;65.75;101169.06;5124503;27;20204;-74
2022/08/25 04:05:44;;;;;;;13.23;7.67;;;;;;;17.90;65.65;101170.59;5128344;27;20212;-75
2022/08/25 04:08:11;;;;;;;9.33;6.83;;;;;;;17.80;65.65;101167.81;5118937;27;20211;-74
2022/08/25 04:10:39;;;;;;;7.57;6.23;;;;;;;17.74;66.20;101176.41;5125430;27;20235;-74
2022/08/25 04:13:06;;;;;;;8.10;6.53;;;;;;;17.70;66.45;101174.97;5120560;27;20233;-75
2022/08/25 04:15:32;;;;;;;9.27;7.07;;;;;;;17.65;66.52;101178.06;5121922;27;20224;-73
2022/08/25 04:17:59;;;;;;;9.77;7.07;;;;;;;17.64;66.77;101186.25;5119624;27;20588;-75
2022/08/25 04:20:26;;;;;;;7.57;6.77;;;;;;;17.63;66.86;101187.22;5119724;27;20726;-75
2022/08/25 04:22:54;;;;;;;8.83;6.50;;;;;;;17.62;66.97;101183.66;5125100;27;20206;-75
2022/08/25 04:25:20;;;;;;;9.27;6.60;;;;;;;17.61;66.74;101186.47;5118085;27;20711;-75
2022/08/25 04:27:48;;;;;;;8.93;6.57;;;;;;;17.56;66.63;101175.22;5113597;27;20789;-75
2022/08/25 04:30:15;;;;;;;8.73;6.80;;;;;;;17.52;66.47;101180.03;5115294;27;20260;-75
2022/08/25 04:32:41;;;;;;;9.97;7.70;;;;;;;17.47;66.21;101178.72;5115296;27;20227;-75
2022/08/25 04:35:09;;;;;;;12.00;6.87;;;;;;;17.41;66.56;101174.69;5115323;27;20213;-75
2022/08/25 04:37:35;;;;;;;14.30;7.07;;;;;;;17.35;66.51;101176.06;5118270;27;20198;-74
2022/08/25 04:40:03;;;;;;;8.87;6.87;;;;;;;17.33;66.84;101174.50;5126117;27;20729;-75
2022/08/25 04:42:30;;;;;;;13.20;6.60;;;;;;;17.29;67.06;101176.56;5111669;27;20254;-75
2022/08/25 04:44:58;;;;;;;11.87;7.07;;;;;;;17.27;67.18;101172.28;5121259;27;20255;-75
2022/08/25 04:47:25;;;;;;;11.83;7.67;;;;;;;17.26;67.66;101165.19;5114722;27;20235;-75
2022/08/25 04:49:51;;;;;;;9.07;6.20;;;;;;;17.27;68.10;101165.06;5124252;27;20274;-75
2022/08/25 04:52:18;;;;;;;10.40;7.47;;;;;;;17.29;68.66;101165.81;5123892;27;20226;-75
2022/08/25 04:54:45;;;;;;;8.47;7.23;;;;;;;17.33;69.07;101161.03;5122112;27;20204;-75
2022/08/25 04:57:11;;;;;;;9.57;7.47;;;;;;;17.33;69.17;101167.28;5124208;27;20209;-75
2022/08/25 04:59:38;;;;;;;11.70;6.97;;;;;;;17.31;68.84;101157.59;5125894;27;20234;-75
2022/08/25 05:02:06;;;;;;;11.47;6.80;;;;;;;17.27;68.80;101164.22;5124836;27;20202;-75
2022/08/25 05:04:35;;;;;;;6.83;6.13;;;;;;;17.20;68.47;101160.31;5121205;27;20205;-75
2022/08/25 05:07:01;;;;;;;10.23;8.00;;;;;;;17.16;69.45;101166.97;5122067;27;20207;-76
2022/08/25 05:09:29;;;;;;;11.90;7.87;;;;;;;17.17;70.24;101164.16;5119868;27;20226;-75
2022/08/25 05:11:55;;;;;;;10.80;8.93;;;;;;;17.20;70.75;101171.09;5116293;27;20235;-76
2022/08/25 05:14:22;;;;;;;9.93;8.03;;;;;;;17.24;71.32;101177.94;5117943;27;20213;-75
2022/08/25 05:16:49;;;;;;;10.03;8.57;;;;;;;17.28;71.82;101165.94;5112355;27;20211;-75
2022/08/25 05:19:18;;;;;;;14.97;9.03;;;;;;;17.31;72.34;101180.00;5107071;27;20254;-76
2022/08/25 05:21:44;;;;;;;12.23;9.40;;;;;;;17.35;72.76;101170.69;5105670;27;20681;-75
2022/08/25 05:24:12;;;;;;;11.33;8.93;;;;;;;17.40;72.98;101178.34;5105703;28;20196;-75
2022/08/25 05:26:39;;;;;;;12.57;9.67;;;;;;;17.45;73.30;101177.97;5099816;27;20219;-75
2022/08/25 05:29:05;;;;;;;13.93;9.17;;;;;;;17.49;73.55;101174.91;5114702;27;20228;-73
2022/08/25 05:31:34;;;;;;;12.97;9.67;;;;;;;17.55;73.81;101181.63;5114793;27;20233;-73
2022/08/25 05:34:05;;;;;;;13.53;9.13;;;;;;;17.61;73.97;101175.72;5110805;27;20237;-72
2022/08/25 05:36:33;;;;;;;14.03;9.80;;;;;;;17.66;74.01;101166.28;5104610;27;20499;-72
2022/08/25 05:39:00;;;;;;;19.37;10.73;;;;;;;17.72;74.53;101166.78;5106568;27;20251;-73
2022/08/25 05:41:29;;;;;;;13.90;10.33;;;;;;;17.76;74.56;101169.03;5107720;27;20708;-71
2022/08/25 05:43:56;;;;;;;13.87;10.50;;;;;;;17.81;74.61;101166.81;5115116;27;20303;-72
2022/08/25 05:46:23;;;;;;;11.93;10.50;;;;;;;17.87;74.84;101169.00;5108842;27;20204;-72
2022/08/25 05:48:50;;;;;;;17.33;10.77;;;;;;;17.94;75.07;101172.88;5104194;27;20214;-72
2022/08/25 05:51:17;;;;;;;13.60;10.83;;;;;;;17.99;74.80;101159.84;5105692;27;20296;-72
2022/08/25 05:53:47;;;;;;;15.20;10.83;;;;;;;18.04;75.05;101160.31;5107754;27;20197;-72
2022/08/25 05:56:14;;;;;;;14.63;11.27;;;;;;;18.10;75.01;101161.59;5110887;27;20205;-73
2022/08/25 05:58:41;;;;;;;14.50;11.53;;;;;;;18.18;75.13;101161.81;5108121;27;20211;-72
2022/08/25 06:04:00;;;;;;;12.23;11.00;;;;;;;18.32;75.48;101163.28;5057844;27;20210;-71
2022/08/25 06:06:26;;;;;;;14.13;11.00;;;;;;;18.39;75.59;101151.84;5106751;27;20205;-70
2022/08/25 06:08:54;;;;;;;12.80;11.50;;;;;;;18.49;75.96;101149.16;5108535;27;20223;-71
2022/08/25 06:11:21;;;;;;;15.77;10.97;;;;;;;18.60;75.80;101159.91;5109258;27;20694;-70
2022/08/25 06:13:48;;;;;;;15.63;11.17;;;;;;;18.70;75.74;101159.94;5115039;27;20215;-71
2022/08/25 06:16:15;;;;;;;14.17;11.00;;;;;;;18.81;75.87;101150.91;5111612;27;20471;-71
2022/08/25 06:18:41;;;;;;;14.77;11.57;;;;;;;18.91;75.95;101155.31;5106846;27;20236;-71
2022/08/25 06:21:11;;;;;;;15.70;11.43;;;;;;;19.05;75.88;101156.75;5106121;27;20205;-71
2022/08/25 06:23:38;;;;;;;15.83;11.20;;;;;;;19.16;75.58;101155.81;5112498;27;20203;-71
2022/08/25 06:26:06;;;;;;;13.30;11.50;;;;;;;19.27;75.63;101153.81;5108633;27;20209;-70
2022/08/25 06:28:33;;;;;;;16.33;10.80;;;;;;;19.37;75.07;101148.41;5114762;27;20217;-71
2022/08/25 06:31:00;;;;;;;16.10;11.60;;;;;;;19.48;74.78;101153.69;5102339;28;20207;-71
2022/08/25 06:33:27;;;;;;;13.87;11.37;;;;;;;19.59;74.85;101150.00;5106715;28;20583;-70
2022/08/25 06:35:55;;;;;;;12.50;11.20;;;;;;;19.73;74.46;101149.56;5100284;27;20203;-71
2022/08/25 06:38:21;;;;;;;14.77;11.47;;;;;;;19.84;74.02;101154.81;5102033;28;20206;-71
2022/08/25 06:40:48;;;;;;;13.60;11.07;;;;;;;19.97;73.86;101149.94;5097660;28;20585;-71
2022/08/25 06:43:16;;;;;;;15.10;11.40;;;;;;;20.10;73.44;101139.66;5101565;28;20199;-71
2022/08/25 06:45:43;;;;;;;12.83;10.83;;;;;;;20.24;72.89;101141.06;5097915;27;20373;-71
2022/08/25 06:48:09;;;;;;;15.57;11.53;;;;;;;20.38;72.68;101142.47;5112176;27;20684;-70
2022/08/25 06:50:39;;;;;;;13.20;11.03;;;;;;;20.50;71.86;101140.41;5098046;28;20220;-71
2022/08/25 06:53:05;;;;;;;12.40;11.10;;;;;;;20.61;71.52;101141.06;5107698;27;20783;-70
2022/08/25 06:55:33;;;;;;;13.57;11.50;;;;;;;20.74;70.98;101136.16;5102769;28;20208;-71
2022/08/25 06:58:02;;;;;;;12.70;11.20;;;;;;;20.85;70.17;101134.25;5095094;28;20247;-71
2022/08/25 07:00:30;;;;;;;13.40;11.20;;;;;;;20.93;69.84;101132.50;5103733;28;20235;-71
2022/08/25 07:02:57;;;;;;;17.13;11.87;;;;;;;21.05;69.31;101131.25;5103096;28;20207;-71
2022/08/25 07:05:24;;;;;;;13.13;11.40;;;;;;;21.16;69.00;101130.19;5105765;27;20260;-71
2022/08/25 07:07:50;;;;;;;13.10;11.40;;;;;;;21.29;68.96;101127.16;5102160;28;20208;-71
2022/08/25 07:10:18;;;;;;;13.53;11.20;;;;;;;21.41;68.79;101121.31;5107669;28;20228;-72
2022/08/25 07:12:44;;;;;;;12.73;10.60;;;;;;;21.53;68.40;101121.06;5107250;28;20285;-72
2022/08/25 07:15:11;;;;;;;12.47;11.17;;;;;;;21.65;68.32;101117.97;5112209;28;20207;-72
2022/08/25 07:17:39;;;;;;;12.75;11.55;;;;;;;21.79;68.29;101121.97;5095863;28;20298;-72
2022/08/25 07:20:06;;;;;;;14.10;10.82;;;;;;;21.93;68.10;101124.09;5108805;28;20301;-70
2022/08/25 07:22:32;;;;;;;17.55;11.40;;;;;;;22.08;68.09;101122.53;5110086;27;20195;-72
2022/08/25 07:24:59;;;;;;;11.63;10.43;;;;;;;22.23;67.67;101114.66;5096498;28;20211;-71
2022/08/25 07:27:26;;;;;;;14.68;11.52;;;;;;;22.37;67.55;101114.06;5099977;28;20605;-71
2022/08/25 07:29:53;;;;;;;12.45;10.75;;;;;;;22.50;66.94;101119.03;5103323;28;20224;-71
2022/08/25 07:32:19;;;;;;;13.93;11.82;;;;;;;22.63;66.73;101121.28;5107620;28;20227;-72
2022/08/25 07:37:31;;;;;;;13.98;11.32;;;;;;;22.93;66.20;101122.63;5100097;28;20210;-71
2022/08/25 07:40:01;;;;;;;13.80;11.98;;;;;;;23.07;66.03;101124.69;5093565;28;20617;-71
2022/08/25 07:42:28;;;;;;;14.75;11.50;;;;;;;23.20;65.65;101120.47;5107386;28;20192;-72
2022/08/25 07:44:54;;;;;;;12.85;11.13;;;;;;;23.36;65.46;101126.94;5099936;28;20284;-72
2022/08/25 07:47:21;;;;;;;11.98;9.95;;;;;;;23.50;65.14;101123.53;5105167;28;20204;-72
2022/08/25 07:49:49;;;;;;;12.73;11.32;;;;;;;23.63;64.48;101131.22;5103611;28;20237;-72
2022/08/25 07:52:16;;;;;;;15.48;10.88;;;;;;;23.77;64.39;101130.53;5097799;28;20230;-72
2022/08/25 07:54:42;;;;;;;11.68;10.48;;;;;;;23.90;64.34;101133.59;5100780;28;20206;-73
2022/08/25 07:57:09;;;;;;;12.68;10.50;;;;;;;24.06;64.03;101127.25;5108285;28;20208;-72
2022/08/25 07:59:39;;;;;;;13.02;11.73;;;;;;;24.25;63.40;101136.94;5134769;22;20295;-70
2022/08/25 08:02:07;;;;;;;11.63;10.40;;;;;;;24.40;63.14;101124.31;5130484;27;20204;-70
2022/08/25 08:04:36;;;;;;;13.55;10.60;;;;;;;24.56;62.35;101124.25;5131332;27;20690;-70
2022/08/25 08:07:04;;;;;;;13.93;10.68;;;;;;;24.69;62.23;101129.16;5123849;27;20561;-69
2022/08/25 08:09:31;;;;;;;13.38;11.07;;;;;;;24.79;61.68;101125.16;5123815;27;20223;-70
2022/08/25 08:11:57;;;;;;;12.98;11.35;;;;;;;24.92;61.38;101128.16;5092914;28;20255;-69
2022/08/25 08:14:24;;;;;;;11.55;10.32;;;;;;;25.06;61.37;101117.56;5094575;28;20208;-69
2022/08/25 08:16:50;;;;;;;16.60;10.55;;;;;;;25.18;61.22;101118.84;5092779;28;20204;-69
2022/08/25 08:19:17;;;;;;;16.63;10.85;;;;;;;25.32;60.90;101120.78;5096765;28;20220;-70
2022/08/25 08:21:45;;;;;;;11.30;10.15;;;;;;;25.44;60.58;101113.88;5103386;28;20672;-70
2022/08/25 08:24:13;;;;;;;14.77;10.63;;;;;;;25.59;60.66;101117.50;5096954;28;20203;-70
2022/08/25 08:26:39;;;;;;;14.63;9.48;;;;;;;25.73;60.43;101117.75;5097385;28;20215;-70
2022/08/25 08:29:06;;;;;;;12.05;10.43;;;;;;;25.82;59.91;101119.38;5101702;28;20218;-70
2022/08/25 08:31:33;;;;;;;11.52;9.68;;;;;;;25.91;59.53;101121.00;5094654;28;20196;-70
2022/08/25 08:34:00;;;;;;;11.18;9.45;;;;;;;25.99;59.35;101118.19;5098750;28;20220;-69
2022/08/25 08:36:27;;;;;;;11.98;9.48;;;;;;;26.07;59.44;101118.09;5095976;28;20207;-70
2022/08/25 08:38:53;;;;;;;11.48;10.35;;;;;;;26.15;59.27;101111.72;5099287;28;20734;-70
2022/08/25 08:44:41;;;;;;;11.75;9.70;;;;;;;26.25;58.90;101102.22;5091445;28;20286;-70
2022/08/25 08:47:16;;;;;;;11.23;9.95;;;;;;;26.32;58.70;101113.25;5095521;28;20217;-70
2022/08/25 08:49:52;;;;;;;12.23;10.25;;;;;;;26.42;58.60;101099.31;5092183;28;20230;-70
2022/08/25 08:52:24;;;;;;;11.93;9.30;;;;;;;26.48;58.26;101090.38;5100062;28;20707;-70
2022/08/25 08:55:00;;;;;;;13.70;10.25;;;;;;;26.58;58.84;101096.38;5093654;28;20227;-70
2022/08/25 08:57:30;;;;;;;11.70;9.95;;;;;;;26.71;58.51;101088.31;5090482;28;20207;-69
2022/08/25 09:00:01;;;;;;;12.68;10.18;;;;;;;26.85;58.02;101087.47;5094165;28;20236;-70
2022/08/25 09:02:34;;;;;;;12.20;9.55;;;;;;;26.92;57.01;101085.63;5094052;28;20729;-69
2022/08/25 09:05:03;;;;;;;11.13;9.48;;;;;;;26.95;56.74;101085.28;5093060;28;20204;-70
2022/08/25 09:07:33;;;;;;;11.63;9.68;;;;;;;27.03;57.07;101081.59;5098109;28;20207;-72
2022/08/25 09:09:59;;;;;;;15.45;10.00;;;;;;;27.13;56.70;101078.53;5094556;28;20220;-72
2022/08/25 09:12:35;;;;;;;11.55;9.07;;;;;;;27.18;56.10;101078.81;5098534;28;20629;-73
2022/08/25 09:15:09;;;;;;;12.18;9.75;;;;;;;27.20;55.96;101077.56;5094957;28;20214;-71
2022/08/25 09:17:51;;;;;;;10.45;9.23;;;;;;;27.24;56.13;101072.53;5094202;28;20204;-72
2022/08/25 09:20:34;;;;;;;13.55;9.85;;;;;;;27.28;55.98;101063.75;5091750;28;20559;-72
2022/08/25 09:23:07;;;;;;;12.70;9.82;;;;;;;27.40;55.95;101060.50;5098441;28;20244;-72
2022/08/25 09:25:44;;;;;;;10.32;8.60;;;;;;;27.50;54.96;101056.38;5092470;28;20207;-72
2022/08/25 09:28:19;;;;;;;8.85;7.60;;;;;;;27.56;54.49;101062.97;5097184;28;20194;-72
2022/08/25 09:30:53;;;;;;;12.82;8.63;;;;;;;27.63;53.90;101059.25;5096070;28;20278;-72
2022/08/25 09:33:22;;;;;;;10.25;8.50;;;;;;;27.74;53.46;101055.13;5090757;28;20684;-72
2022/08/25 09:35:50;;;;;;;9.90;8.63;;;;;;;27.77;53.10;101057.44;5090718;28;20208;-72
2022/08/25 09:38:18;;;;;;;10.45;8.50;;;;;;;27.78;52.99;101061.88;5095294;28;20196;-72
2022/08/25 09:40:47;;;;;;;11.68;8.10;;;;;;;27.78;52.32;101061.03;5093627;28;20235;-72
2022/08/25 09:43:22;;;;;;;10.43;8.38;;;;;;;27.83;52.19;101059.41;5090048;28;20196;-72
2022/08/25 09:45:57;;;;;;;11.80;8.20;;;;;;;27.93;52.11;101048.94;5091711;28;20211;-72
2022/08/25 09:48:26;;;;;;;12.95;8.43;;;;;;;28.03;51.88;101043.09;5095157;28;20200;-72
2022/08/25 09:50:58;;;;;;;12.05;8.95;;;;;;;28.13;51.99;101045.47;5096981;28;20219;-71
2022/08/25 09:53:26;;;;;;;10.00;8.65;;;;;;;28.21;51.89;101040.72;5097406;28;20226;-72
2022/08/25 09:55:59;;;;;;;12.55;9.73;;;;;;;28.26;52.39;101038.22;5092288;28;20204;-72
2022/08/25 09:58:27;;;;;;;17.42;9.55;;;;;;;28.33;51.58;101025.38;5095547;28;20200;-72
2022/08/25 10:01:15;;;;;;;12.48;8.88;;;;;;;28.40;51.71;101024.56;5095502;28;20524;-72
2022/08/25 10:04:01;;;;;;;11.63;9.13;;;;;;;28.44;51.04;101031.34;5096599;28;20738;-72
2022/08/25 10:06:33;;;;;;;10.20;9.20;;;;;;;28.44;51.13;101029.44;5099015;28;20200;-71
2022/08/25 10:09:05;;;;;;;13.38;8.75;;;;;;;28.48;51.29;101036.22;5095106;28;20212;-71
2022/08/25 10:11:40;;;;;;;9.30;8.20;;;;;;;28.55;51.07;101028.84;5090018;28;20231;-72
2022/08/25 10:14:19;;;;;;;12.05;8.40;;;;;;;28.60;50.57;101014.53;5097230;28;20225;-72
2022/08/25 10:16:47;;;;;;;9.50;8.52;;;;;;;28.67;50.92;101012.63;5094424;28;20212;-72
2022/08/25 10:19:23;;;;;;;9.60;8.70;;;;;;;28.73;50.81;101006.34;5097757;28;20334;-72
2022/08/25 10:22:04;;;;;;;11.70;8.65;;;;;;;28.78;50.74;101003.81;5092776;28;20441;-72
2022/08/25 10:24:31;;;;;;;8.40;7.60;;;;;;;28.87;51.10;101004.50;5095555;28;20287;-72
2022/08/25 10:27:05;;;;;;;10.18;7.80;;;;;;;28.96;50.18;100995.88;5089199;28;20203;-72
2022/08/25 10:29:48;;;;;;;10.05;8.25;;;;;;;28.97;49.52;100994.81;5091095;28;20223;-72
2022/08/25 10:32:21;;;;;;;9.48;8.30;;;;;;;28.96;49.30;100984.91;5092059;28;20207;-72
2022/08/25 10:34:49;;;;;;;13.32;8.32;;;;;;;28.90;48.75;100984.88;5091774;28;20227;-72
2022/08/25 10:37:27;;;;;;;11.95;8.68;;;;;;;28.88;49.61;100979.59;5098086;28;20675;-73
2022/08/25 10:40:00;;;;;;;10.35;8.18;;;;;;;28.88;49.43;100973.28;5101526;28;20220;-72
2022/08/25 10:42:34;;;;;;;14.60;8.32;;;;;;;28.93;49.21;100970.75;5096042;28;20218;-72
2022/08/25 10:48:12;;;;;;;11.52;7.85;;;;;;;29.09;48.34;100964.03;5095896;28;20202;-72
2022/08/25 10:50:43;;;;;;;11.18;8.00;;;;;;;29.18;48.48;100957.28;5103326;28;20227;-72
2022/08/25 10:53:26;;;;;;;11.32;7.82;;;;;;;29.24;48.03;100946.28;5097044;28;20231;-72
2022/08/25 10:56:03;;;;;;;8.20;6.90;;;;;;;29.34;47.95;100940.38;5101652;28;20704;-72
2022/08/25 10:58:59;;;;;;;10.40;7.30;;;;;;;29.46;48.02;100940.59;5103548;28;20229;-72
2022/08/25 11:01:36;;;;;;;10.88;7.97;;;;;;;29.57;47.65;100945.44;5094650;28;20730;-72
2022/08/25 11:04:08;;;;;;;8.90;7.47;;;;;;;29.67;47.68;100937.59;5088192;28;20589;-72
2022/08/25 11:06:42;;;;;;;9.60;7.05;;;;;;;29.73;47.22;100944.16;5090295;28;20199;-72
2022/08/25 11:09:12;;;;;;;8.68;7.25;;;;;;;29.77;46.97;100937.16;5096670;28;20203;-72
2022/08/25 11:11:46;;;;;;;9.52;7.20;;;;;;;29.81;46.60;100932.91;5094224;28;20211;-72
2022/08/25 11:14:20;;;;;;;13.57;7.72;;;;;;;29.82;46.58;100929.97;5094264;28;20747;-71
2022/08/25 11:17:01;;;;;;;11.85;7.60;;;;;;;29.79;46.77;100922.16;5091082;28;20236;-71
2022/08/25 11:19:31;;;;;;;10.25;7.40;;;;;;;29.76;46.84;100924.47;5088882;28;20224;-72
2022/08/25 11:22:05;;;;;;;8.65;7.35;;;;;;;29.75;46.87;100923.63;5101078;28;20669;-72
2022/08/25 11:24:40;;;;;;;9.95;7.43;;;;;;;29.73;46.54;100922.19;5107701;28;20199;-72
2022/08/25 11:27:13;;;;;;;9.43;7.47;;;;;;;29.66;46.79;100908.47;5103279;28;20634;-72
2022/08/25 11:29:45;;;;;;;10.13;7.43;;;;;;;29.61;46.50;100914.59;5099753;28;20249;-72
2022/08/25 11:32:14;;;;;;;12.32;7.82;;;;;;;29.58;47.21;100908.69;5094727;28;20207;-72
2022/08/25 11:34:40;;;;;;;9.60;7.78;;;;;;;29.58;47.00;100903.22;5095862;28;20230;-71
2022/08/25 11:37:19;;;;;;;10.50;8.00;;;;;;;29.58;46.80;100892.22;5095297;28;20211;-72
2022/08/25 11:40:13;;;;;;;11.98;7.93;;;;;;;29.59;47.01;100900.25;5095328;28;20566;-72
2022/08/25 11:42:54;;;;;;;10.70;6.95;;;;;;;29.56;46.76;100892.44;5095994;28;20249;-72